KFPR/FPR METAR and TAF weather

Enter ICAO airport designator
Station Type Date Time Source
KFPR METAR 2020/01/26 03:53 UTC NOAA

KFPR 260353Z AUTO 00000KT 10SM CLR 09/07 A3010 RMK AO2 SLP191 T00890072


Station Type Date Time Source
KFPR Decoded METAR 2020/01/26 03:53 UTC NOAA

FORT PIERCE ST LUCIE, FL, United States (KFPR) 27-30N 080-23W 13M
Jan 25, 2020 - 10:53 PM EST / 2020.01.26 0353 UTC
Wind: Calm:0
Visibility: 10 mile(s):0
Sky conditions: clear
Temperature: 48.0 F (8.9 C)
Dew Point: 45.0 F (7.2 C)
Relative Humidity: 89%
Pressure (altimeter): 30.1 in. Hg (1019 hPa)
ob: KFPR 260353Z AUTO 00000KT 10SM CLR 09/07 A3010 RMK AO2 SLP191 T00890072
cycle: 4

Station Type Date Time Source
KFPR TAF 2020/01/25 18:22 UTC NOAA

TAF KFPR 251720Z 2518/2618 32011KT P6SM FEW040
FM252300 30004KT P6SM SKC
FM261400 35008KT P6SM FEW250

Example: see airport list